createdAt,value
2018-09-06T00:00:36.956Z,20.86
2018-09-06T00:03:05.819Z,20.84
2018-09-06T00:05:34.737Z,20.77
2018-09-06T00:08:03.635Z,20.80
2018-09-06T00:10:32.473Z,20.70
2018-09-06T00:13:01.342Z,20.67
2018-09-06T00:15:30.164Z,20.55
2018-09-06T00:17:59.011Z,20.55
2018-09-06T00:20:27.854Z,20.79
2018-09-06T00:22:56.732Z,20.58
2018-09-06T00:25:25.600Z,20.83
2018-09-06T00:27:54.425Z,20.63
2018-09-06T00:30:23.260Z,20.58
2018-09-06T00:32:52.094Z,20.56
2018-09-06T00:35:20.938Z,20.47
2018-09-06T00:37:49.831Z,20.40
2018-09-06T00:40:18.712Z,20.36
2018-09-06T00:42:47.593Z,20.38
2018-09-06T00:45:16.474Z,20.32
2018-09-06T00:47:45.306Z,20.32
2018-09-06T00:50:21.280Z,20.34
2018-09-06T00:52:51.372Z,20.32
2018-09-06T00:55:20.757Z,20.33
2018-09-06T00:57:49.651Z,20.26
2018-09-06T01:00:18.520Z,20.32
2018-09-06T01:02:47.372Z,20.23
2018-09-06T01:05:16.224Z,20.14
2018-09-06T01:07:45.068Z,20.10
2018-09-06T01:10:14.607Z,20.13
2018-09-06T01:12:43.479Z,20.13
2018-09-06T01:15:12.387Z,20.07
2018-09-06T01:17:41.233Z,19.96
2018-09-06T01:20:10.166Z,19.96
2018-09-06T01:22:39.672Z,19.96
2018-09-06T01:25:08.558Z,20.00
2018-09-06T01:27:37.483Z,19.98
2018-09-06T01:30:06.362Z,19.96
2018-09-06T01:32:35.226Z,19.88
2018-09-06T01:35:04.118Z,19.80
2018-09-06T01:37:32.979Z,19.79
2018-09-06T01:40:01.867Z,19.78
2018-09-06T01:42:30.758Z,19.82
2018-09-06T01:44:59.581Z,19.88
2018-09-06T01:47:28.466Z,20.03
2018-09-06T01:49:57.282Z,20.07
2018-09-06T01:52:26.156Z,20.13
2018-09-06T01:54:55.021Z,19.83
2018-09-06T01:57:23.851Z,19.75
2018-09-06T01:59:52.741Z,19.70
2018-09-06T02:02:21.602Z,19.65
2018-09-06T02:04:50.461Z,19.65
2018-09-06T02:07:19.280Z,19.59
2018-09-06T02:09:48.153Z,19.68
2018-09-06T02:12:16.985Z,19.61
2018-09-06T02:14:45.913Z,19.54
2018-09-06T02:17:14.752Z,19.50
2018-09-06T02:19:43.591Z,19.48
2018-09-06T02:22:12.416Z,19.53
2018-09-06T02:24:41.271Z,19.55
2018-09-06T02:27:10.106Z,19.79
2018-09-06T02:29:38.967Z,19.59
2018-09-06T02:32:07.880Z,19.55
2018-09-06T02:34:36.750Z,19.52
2018-09-06T02:37:05.610Z,19.53
2018-09-06T02:39:34.448Z,19.53
2018-09-06T02:42:03.339Z,19.52
2018-09-06T02:44:32.237Z,19.51
2018-09-06T02:47:01.125Z,19.50
2018-09-06T02:49:47.655Z,19.48
2018-09-06T02:52:16.554Z,19.47
2018-09-06T02:54:45.415Z,19.44
2018-09-06T02:57:14.309Z,19.42
2018-09-06T02:59:46.203Z,19.41
2018-09-06T03:02:15.094Z,19.40
2018-09-06T03:04:44.188Z,19.42
2018-09-06T03:07:13.080Z,19.43
2018-09-06T03:09:41.929Z,19.44
2018-09-06T03:12:10.923Z,19.43
2018-09-06T03:14:39.802Z,19.43
2018-09-06T03:17:08.701Z,19.44
2018-09-06T03:19:37.582Z,19.44
2018-09-06T03:22:06.450Z,19.40
2018-09-06T03:24:35.308Z,19.71
2018-09-06T03:27:04.165Z,19.48
2018-09-06T03:29:33.030Z,19.48
2018-09-06T03:32:01.919Z,19.45
2018-09-06T03:34:30.739Z,19.47
2018-09-06T03:36:59.608Z,19.45
2018-09-06T03:39:28.475Z,19.39
2018-09-06T03:41:57.341Z,19.35
2018-09-06T03:44:26.203Z,19.43
2018-09-06T03:46:55.064Z,19.30
2018-09-06T03:49:23.913Z,19.30
2018-09-06T03:51:52.759Z,19.31
2018-09-06T03:54:21.623Z,19.35
2018-09-06T03:56:50.476Z,19.66
2018-09-06T03:59:19.323Z,19.48
2018-09-06T04:01:48.175Z,19.45
2018-09-06T04:04:17.037Z,19.42
2018-09-06T04:06:45.882Z,19.40
2018-09-06T04:09:14.731Z,19.38
2018-09-06T04:11:43.580Z,19.38
2018-09-06T04:14:12.448Z,19.40
2018-09-06T04:16:41.291Z,19.41
2018-09-06T04:19:10.134Z,19.68
2018-09-06T04:21:39.513Z,19.49
2018-09-06T04:24:08.426Z,19.49
2018-09-06T04:26:37.265Z,19.48
2018-09-06T04:29:06.090Z,19.44
2018-09-06T04:31:34.945Z,19.38
2018-09-06T04:34:03.834Z,19.33
2018-09-06T04:36:32.692Z,19.35
2018-09-06T04:39:01.526Z,19.35
2018-09-06T04:41:30.353Z,19.41
2018-09-06T04:43:59.180Z,19.39
2018-09-06T04:46:28.044Z,19.33
2018-09-06T04:48:56.867Z,19.30
2018-09-06T04:51:25.747Z,19.27
2018-09-06T04:53:54.607Z,19.26
2018-09-06T04:56:23.458Z,19.22
2018-09-06T04:58:52.365Z,19.25
2018-09-06T05:01:21.225Z,19.27
2018-09-06T05:03:50.064Z,19.25
2018-09-06T05:06:18.912Z,19.24
2018-09-06T05:08:47.761Z,19.22
2018-09-06T05:11:16.606Z,19.21
2018-09-06T05:13:45.468Z,19.45
2018-09-06T05:16:14.285Z,19.32
2018-09-06T05:18:43.142Z,19.26
2018-09-06T05:21:11.973Z,19.20
2018-09-06T05:23:40.897Z,19.16
2018-09-06T05:26:09.734Z,19.18
2018-09-06T05:28:38.598Z,19.14
2018-09-06T05:31:07.473Z,19.06
2018-09-06T05:33:36.320Z,19.11
2018-09-06T05:36:05.215Z,19.09
2018-09-06T05:38:34.013Z,19.06
2018-09-06T05:41:02.862Z,19.05
2018-09-06T05:43:31.751Z,19.08
2018-09-06T05:46:00.625Z,19.11
2018-09-06T05:48:29.461Z,19.15
2018-09-06T05:50:58.321Z,19.17
2018-09-06T05:53:27.223Z,19.16
2018-09-06T05:55:56.022Z,19.18
2018-09-06T05:58:24.858Z,19.18
2018-09-06T06:00:53.701Z,19.20
2018-09-06T06:03:22.533Z,19.15
2018-09-06T06:05:51.472Z,19.21
2018-09-06T06:08:40.026Z,19.22
2018-09-06T06:11:09.049Z,19.18
2018-09-06T06:13:37.923Z,19.27
2018-09-06T06:16:06.848Z,19.27
2018-09-06T06:18:35.708Z,19.27
2018-09-06T06:21:04.668Z,19.31
2018-09-06T06:23:33.567Z,19.30
2018-09-06T06:26:02.574Z,19.34
2018-09-06T06:28:31.357Z,19.33
2018-09-06T06:31:00.220Z,19.34
2018-09-06T06:33:29.135Z,19.35
2018-09-06T06:35:58.022Z,19.34
2018-09-06T06:38:26.909Z,19.32
2018-09-06T06:40:55.782Z,19.29
2018-09-06T06:43:24.620Z,19.33
2018-09-06T06:45:53.512Z,19.35
2018-09-06T06:48:22.348Z,19.31
2018-09-06T06:50:51.283Z,19.36
2018-09-06T06:53:20.157Z,19.40
2018-09-06T06:55:49.021Z,19.46
2018-09-06T06:58:17.960Z,19.53
2018-09-06T07:00:46.848Z,19.55
2018-09-06T07:03:15.681Z,19.56
2018-09-06T07:05:44.528Z,19.53
2018-09-06T07:08:13.370Z,19.51
2018-09-06T07:10:42.207Z,19.57
2018-09-06T07:13:11.049Z,19.62
2018-09-06T07:15:39.893Z,19.66
2018-09-06T07:18:09.220Z,19.68
2018-09-06T07:20:37.997Z,19.73
2018-09-06T07:23:06.930Z,19.71
2018-09-06T07:25:35.816Z,19.74
2018-09-06T07:28:04.672Z,20.03
2018-09-06T07:30:33.579Z,19.88
2018-09-06T07:33:02.399Z,19.82
2018-09-06T07:35:31.292Z,19.83
2018-09-06T07:38:00.152Z,20.19
2018-09-06T07:40:28.989Z,20.34
2018-09-06T07:42:57.858Z,20.06
2018-09-06T07:45:26.756Z,20.01
2018-09-06T07:47:55.710Z,20.01
2018-09-06T07:50:24.530Z,20.00
2018-09-06T07:52:53.395Z,20.07
2018-09-06T07:55:22.269Z,20.10
2018-09-06T07:57:51.111Z,20.18
2018-09-06T08:00:20.015Z,20.19
2018-09-06T08:02:48.863Z,20.18
2018-09-06T08:05:17.756Z,20.20
2018-09-06T08:07:46.736Z,20.60
2018-09-06T08:10:15.591Z,20.48
2018-09-06T08:12:44.433Z,20.61
2018-09-06T08:15:13.297Z,20.74
2018-09-06T08:17:42.160Z,20.83
2018-09-06T08:20:11.818Z,20.88
2018-09-06T08:22:40.873Z,20.92
2018-09-06T08:25:10.130Z,20.98
2018-09-06T08:27:41.704Z,21.11
2018-09-06T08:30:10.887Z,21.31
2018-09-06T08:32:40.084Z,21.56
2018-09-06T08:35:09.284Z,21.75
2018-09-06T08:37:38.520Z,21.85
2018-09-06T08:40:07.667Z,21.92
2018-09-06T08:42:37.364Z,21.94
2018-09-06T08:45:06.254Z,22.17
2018-09-06T08:47:35.210Z,21.91
2018-09-06T08:50:04.184Z,21.86
2018-09-06T08:52:33.100Z,21.80
2018-09-06T08:55:01.833Z,21.74
2018-09-06T08:57:30.717Z,21.79
2018-09-06T08:59:59.660Z,21.83
2018-09-06T09:02:28.634Z,22.11
2018-09-06T09:04:57.386Z,21.83
2018-09-06T09:07:26.218Z,21.65
2018-09-06T09:09:55.228Z,21.53
2018-09-06T09:12:24.117Z,21.42
2018-09-06T09:14:52.967Z,21.35
2018-09-06T09:17:21.816Z,21.22
2018-09-06T09:19:50.749Z,21.16
2018-09-06T09:22:19.723Z,21.09
2018-09-06T09:24:48.488Z,21.15
2018-09-06T09:27:17.327Z,21.20
2018-09-06T09:29:46.184Z,21.18
2018-09-06T09:32:15.028Z,21.24
2018-09-06T09:34:43.846Z,21.31
2018-09-06T09:37:12.698Z,21.40
2018-09-06T09:39:41.545Z,21.50
2018-09-06T09:42:10.600Z,21.60
2018-09-06T09:44:39.492Z,21.64
2018-09-06T09:49:36.410Z,21.53
2018-09-06T09:52:05.258Z,21.62
2018-09-06T09:54:34.142Z,21.59
2018-09-06T09:57:03.074Z,21.67
2018-09-06T09:59:31.844Z,21.63
2018-09-06T10:02:18.447Z,21.64
2018-09-06T10:05:15.344Z,21.65
2018-09-06T10:07:57.910Z,21.58
2018-09-06T10:10:27.212Z,21.64
2018-09-06T10:12:56.102Z,21.63
2018-09-06T10:15:24.961Z,21.71
2018-09-06T10:17:53.870Z,21.71
2018-09-06T10:20:22.731Z,21.73
2018-09-06T10:22:51.604Z,21.75
2018-09-06T10:25:20.542Z,21.78
2018-09-06T10:27:49.432Z,21.85
2018-09-06T10:30:18.370Z,21.81
2018-09-06T10:32:47.224Z,21.73
2018-09-06T10:35:16.113Z,21.69
2018-09-06T10:37:45.109Z,21.67
2018-09-06T10:40:13.959Z,21.58
2018-09-06T10:42:43.205Z,21.53
2018-09-06T10:45:12.045Z,21.63
2018-09-06T10:47:40.915Z,21.63
2018-09-06T10:50:09.736Z,21.62
2018-09-06T10:52:38.605Z,21.97
2018-09-06T10:55:07.467Z,21.68
2018-09-06T10:57:36.344Z,21.64
2018-09-06T11:00:05.240Z,21.61
2018-09-06T11:02:34.170Z,21.61
2018-09-06T11:05:03.196Z,21.62
2018-09-06T11:07:32.113Z,21.64
2018-09-06T11:10:00.966Z,21.64
2018-09-06T11:12:29.907Z,21.60
2018-09-06T11:14:58.879Z,21.51
2018-09-06T11:17:27.692Z,21.52
2018-09-06T11:19:56.535Z,21.54
2018-09-06T11:22:25.464Z,21.43
2018-09-06T11:24:54.297Z,21.41
2018-09-06T11:27:23.220Z,21.26
2018-09-06T11:29:52.031Z,21.25
2018-09-06T11:32:20.860Z,21.31
2018-09-06T11:34:49.817Z,21.40
2018-09-06T11:37:18.609Z,21.42
2018-09-06T11:39:47.473Z,21.40
2018-09-06T11:42:16.356Z,21.67
2018-09-06T11:44:45.248Z,21.48
2018-09-06T11:47:14.272Z,21.50
2018-09-06T11:49:43.002Z,21.54
2018-09-06T11:52:11.901Z,21.53
2018-09-06T11:54:40.756Z,21.64
2018-09-06T11:57:09.646Z,21.67
2018-09-06T11:59:38.479Z,22.05
2018-09-06T12:02:07.460Z,21.87
2018-09-06T12:04:36.318Z,21.94
2018-09-06T12:07:05.223Z,22.02
2018-09-06T12:09:34.117Z,21.93
2018-09-06T12:12:02.985Z,21.87
2018-09-06T12:14:31.820Z,21.94
2018-09-06T12:17:00.674Z,22.05
2018-09-06T12:19:29.697Z,22.12
2018-09-06T12:21:58.586Z,22.57
2018-09-06T12:24:27.475Z,22.42
2018-09-06T12:26:56.348Z,22.48
2018-09-06T12:29:25.292Z,22.55
2018-09-06T12:31:54.140Z,22.64
2018-09-06T12:34:22.999Z,22.71
2018-09-06T12:36:51.820Z,22.76
2018-09-06T12:39:20.713Z,22.77
2018-09-06T12:41:49.599Z,22.69
2018-09-06T12:44:18.485Z,22.60
2018-09-06T12:46:47.375Z,22.51
2018-09-06T12:49:16.259Z,22.48
2018-09-06T12:51:45.166Z,22.58
2018-09-06T12:54:14.025Z,22.61
2018-09-06T12:56:42.938Z,22.63
2018-09-06T12:59:11.750Z,22.65
2018-09-06T13:01:40.613Z,22.58
2018-09-06T13:04:09.447Z,22.44
2018-09-06T13:06:38.342Z,22.36
2018-09-06T13:09:07.550Z,22.37
2018-09-06T13:11:37.058Z,22.37
2018-09-06T13:14:05.889Z,22.49
2018-09-06T13:16:35.023Z,22.50
2018-09-06T13:19:04.246Z,22.51
2018-09-06T13:21:33.429Z,22.56
2018-09-06T13:24:02.527Z,22.74
2018-09-06T13:26:31.358Z,22.87
2018-09-06T13:29:00.251Z,23.00
2018-09-06T13:31:29.108Z,23.12
2018-09-06T13:33:57.976Z,23.31
2018-09-06T13:36:26.923Z,23.45
2018-09-06T13:38:55.903Z,23.41
2018-09-06T13:41:24.754Z,23.26
2018-09-06T13:43:53.603Z,23.10
2018-09-06T13:46:22.465Z,23.00
2018-09-06T13:48:51.393Z,22.96
2018-09-06T13:51:20.303Z,22.90
2018-09-06T13:53:49.162Z,22.83
2018-09-06T13:56:18.027Z,22.77
2018-09-06T13:58:46.946Z,22.69
2018-09-06T14:01:15.793Z,22.65
2018-09-06T14:03:44.730Z,22.46
2018-09-06T14:06:13.581Z,22.35
2018-09-06T14:08:42.438Z,22.12
2018-09-06T14:11:11.308Z,21.93
2018-09-06T14:13:40.159Z,21.67
2018-09-06T14:16:09.011Z,21.50
2018-09-06T14:18:37.888Z,21.27
2018-09-06T14:21:07.228Z,21.08
2018-09-06T14:23:36.313Z,20.93
2018-09-06T14:26:05.188Z,20.78
2018-09-06T14:28:34.152Z,20.82
2018-09-06T14:31:03.138Z,20.75
2018-09-06T14:33:32.016Z,20.71
2018-09-06T14:36:00.873Z,20.65
2018-09-06T14:38:29.736Z,20.62
2018-09-06T14:40:58.616Z,20.67
2018-09-06T14:43:27.485Z,20.75
2018-09-06T14:45:56.342Z,20.84
2018-09-06T14:48:25.204Z,20.92
2018-09-06T14:50:54.144Z,21.02
2018-09-06T14:53:22.975Z,21.20
2018-09-06T14:55:51.844Z,21.30
2018-09-06T14:58:20.777Z,21.31
2018-09-06T15:00:49.702Z,21.32
2018-09-06T15:03:18.562Z,21.33
2018-09-06T15:05:47.451Z,21.32
2018-09-06T15:08:16.360Z,21.27
2018-09-06T15:10:45.228Z,21.23
2018-09-06T15:13:14.169Z,21.16
2018-09-06T15:15:43.041Z,21.13
2018-09-06T15:18:11.918Z,21.16
2018-09-06T15:20:40.759Z,21.15
2018-09-06T15:23:09.698Z,21.14
2018-09-06T15:25:38.586Z,21.04
2018-09-06T15:28:07.452Z,20.95
2018-09-06T15:30:36.392Z,20.82
2018-09-06T15:33:05.183Z,20.81
2018-09-06T15:35:34.031Z,20.70
2018-09-06T15:38:02.920Z,20.65
2018-09-06T15:40:31.754Z,20.55
2018-09-06T15:43:00.600Z,20.44
2018-09-06T15:45:29.524Z,20.38
2018-09-06T15:47:58.430Z,20.38
2018-09-06T15:50:27.304Z,20.34
2018-09-06T15:52:56.416Z,20.25
2018-09-06T15:55:25.294Z,20.56
2018-09-06T15:57:54.372Z,20.36
2018-09-06T16:00:23.251Z,20.18
2018-09-06T16:02:52.111Z,19.87
2018-09-06T16:05:20.964Z,19.51
2018-09-06T16:07:49.846Z,19.24
2018-09-06T16:10:18.665Z,19.00
2018-09-06T16:12:47.480Z,18.93
2018-09-06T16:15:16.366Z,18.87
2018-09-06T16:17:45.221Z,18.76
2018-09-06T16:20:14.072Z,18.71
2018-09-06T16:22:43.587Z,18.77
2018-09-06T16:25:12.446Z,18.79
2018-09-06T16:27:41.317Z,18.77
2018-09-06T16:30:10.173Z,18.81
2018-09-06T16:32:39.091Z,19.01
2018-09-06T16:35:08.001Z,18.96
2018-09-06T16:37:36.831Z,18.96
2018-09-06T16:40:05.697Z,19.03
2018-09-06T16:42:34.594Z,19.01
2018-09-06T16:45:03.384Z,19.02
2018-09-06T16:47:32.256Z,19.04
2018-09-06T16:50:01.113Z,19.05
2018-09-06T16:52:30.026Z,19.02
2018-09-06T16:54:58.833Z,19.04
2018-09-06T16:57:27.718Z,19.06
2018-09-06T16:59:56.583Z,19.08
2018-09-06T17:02:25.624Z,19.09
2018-09-06T17:04:54.534Z,19.04
2018-09-06T17:07:23.371Z,19.06
2018-09-06T17:09:52.259Z,19.09
2018-09-06T17:12:21.101Z,19.03
2018-09-06T17:14:49.973Z,19.01
2018-09-06T17:17:18.842Z,19.00
2018-09-06T17:19:47.669Z,19.00
2018-09-06T17:22:16.537Z,19.03
2018-09-06T17:24:45.400Z,19.03
2018-09-06T17:27:14.272Z,19.02
2018-09-06T17:29:43.122Z,19.27
2018-09-06T17:32:12.113Z,19.04
2018-09-06T17:34:40.986Z,19.02
2018-09-06T17:37:09.846Z,19.06
2018-09-06T17:39:38.721Z,19.10
2018-09-06T17:42:07.611Z,19.12
2018-09-06T17:44:36.474Z,19.14
2018-09-06T17:47:05.380Z,19.17
2018-09-06T17:49:34.219Z,19.12
2018-09-06T17:52:03.080Z,19.35
2018-09-06T17:54:32.007Z,19.12
2018-09-06T17:57:00.798Z,19.04
2018-09-06T17:59:29.646Z,19.03
2018-09-06T18:01:58.492Z,18.93
2018-09-06T18:04:27.361Z,18.88
2018-09-06T18:06:56.225Z,19.11
2018-09-06T18:09:25.055Z,18.88
2018-09-06T18:11:53.914Z,18.75
2018-09-06T18:14:22.761Z,18.94
2018-09-06T18:16:51.611Z,18.95
2018-09-06T18:19:20.445Z,18.60
2018-09-06T18:21:49.293Z,18.50
2018-09-06T18:24:18.153Z,18.46
2018-09-06T18:26:46.979Z,18.36
2018-09-06T18:29:15.822Z,18.27
2018-09-06T18:31:44.680Z,18.22
2018-09-06T18:34:13.515Z,18.18
2018-09-06T18:36:42.388Z,18.14
2018-09-06T18:39:11.303Z,18.07
2018-09-06T18:41:40.189Z,18.02
2018-09-06T18:44:09.177Z,17.97
2018-09-06T18:46:37.948Z,17.87
2018-09-06T18:49:06.762Z,17.84
2018-09-06T18:51:35.612Z,17.80
2018-09-06T18:54:04.440Z,17.73
2018-09-06T18:56:33.332Z,17.66
2018-09-06T18:59:02.192Z,17.70
2018-09-06T19:01:31.069Z,17.94
2018-09-06T19:03:59.912Z,17.74
2018-09-06T19:06:28.788Z,17.68
2018-09-06T19:08:57.594Z,17.62
2018-09-06T19:11:26.459Z,17.57
2018-09-06T19:13:55.358Z,17.52
2018-09-06T19:16:24.237Z,17.48
2018-09-06T19:18:53.064Z,17.48
2018-09-06T19:21:21.907Z,17.38
2018-09-06T19:23:50.762Z,17.31
2018-09-06T19:26:19.722Z,17.29
2018-09-06T19:28:48.502Z,17.30
2018-09-06T19:31:17.361Z,17.30
2018-09-06T19:33:46.221Z,17.28
2018-09-06T19:36:15.060Z,17.22
2018-09-06T19:38:43.949Z,17.18
2018-09-06T19:41:12.789Z,17.18
2018-09-06T19:43:41.648Z,17.18
2018-09-06T19:46:10.578Z,17.18
2018-09-06T19:48:39.435Z,17.55
2018-09-06T19:51:08.318Z,17.36
2018-09-06T19:53:37.168Z,17.40
2018-09-06T19:56:06.088Z,17.47
2018-09-06T19:58:34.968Z,17.43
2018-09-06T20:01:03.870Z,17.43
2018-09-06T20:03:32.729Z,17.47
2018-09-06T20:06:01.624Z,17.48
2018-09-06T20:08:30.633Z,17.46
2018-09-06T20:10:59.411Z,17.46
2018-09-06T20:13:28.268Z,17.47
2018-09-06T20:15:57.147Z,17.43
2018-09-06T20:18:26.007Z,17.41
2018-09-06T20:20:54.851Z,17.37
2018-09-06T20:23:23.713Z,17.38
2018-09-06T20:25:52.557Z,17.37
2018-09-06T20:28:21.605Z,17.36
2018-09-06T20:30:50.281Z,17.34
2018-09-06T20:33:19.142Z,17.30
2018-09-06T20:35:48.016Z,17.27
2018-09-06T20:38:16.860Z,17.25
2018-09-06T20:40:45.744Z,17.25
2018-09-06T20:43:14.601Z,17.23
2018-09-06T20:45:43.463Z,17.21
2018-09-06T20:48:12.337Z,17.17
2018-09-06T20:50:41.187Z,17.15
2018-09-06T20:53:10.053Z,17.12
2018-09-06T20:55:38.875Z,17.10
2018-09-06T20:58:07.742Z,17.39
2018-09-06T21:00:36.622Z,17.14
2018-09-06T21:03:05.562Z,17.08
2018-09-06T21:05:34.348Z,17.03
2018-09-06T21:08:03.204Z,17.05
2018-09-06T21:10:32.084Z,17.01
2018-09-06T21:13:00.950Z,17.03
2018-09-06T21:15:29.808Z,17.05
2018-09-06T21:17:58.671Z,17.06
2018-09-06T21:20:27.557Z,17.08
2018-09-06T21:22:56.409Z,17.13
2018-09-06T21:25:25.291Z,17.13
2018-09-06T21:27:54.141Z,17.13
2018-09-06T21:30:23.001Z,17.12
2018-09-06T21:32:51.857Z,17.46
2018-09-06T21:35:20.726Z,17.23
2018-09-06T21:37:49.604Z,17.20
2018-09-06T21:40:18.446Z,17.19
2018-09-06T21:42:47.324Z,17.15
2018-09-06T21:45:16.164Z,17.18
2018-09-06T21:47:45.003Z,17.13
2018-09-06T21:50:13.857Z,17.13
2018-09-06T21:52:42.704Z,17.13
2018-09-06T21:55:11.583Z,17.09
2018-09-06T21:57:40.443Z,17.06
2018-09-06T22:00:09.343Z,17.01
2018-09-06T22:02:56.143Z,17.04
2018-09-06T22:05:24.986Z,17.03
2018-09-06T22:07:53.909Z,17.07
2018-09-06T22:10:23.368Z,17.09
2018-09-06T22:12:53.077Z,17.13
2018-09-06T22:15:21.945Z,17.12
2018-09-06T22:17:50.839Z,17.11
2018-09-06T22:20:19.690Z,17.43
2018-09-06T22:22:48.526Z,17.18
2018-09-06T22:25:17.401Z,17.14
2018-09-06T22:27:46.271Z,17.12
2018-09-06T22:30:15.118Z,17.08
2018-09-06T22:32:44.002Z,17.08
2018-09-06T22:35:12.859Z,17.07
2018-09-06T22:37:41.760Z,17.07
2018-09-06T22:40:10.633Z,17.03
2018-09-06T22:42:39.531Z,17.06
2018-09-06T22:45:08.419Z,17.09
2018-09-06T22:47:37.297Z,17.09
2018-09-06T22:50:06.217Z,17.04
2018-09-06T22:52:35.106Z,17.05
2018-09-06T22:55:04.034Z,17.07
2018-09-06T22:57:33.243Z,17.09
2018-09-06T23:00:02.315Z,17.11
2018-09-06T23:02:49.397Z,17.13
2018-09-06T23:05:18.323Z,17.09
2018-09-06T23:07:47.172Z,17.08
2018-09-06T23:10:16.060Z,17.09
2018-09-06T23:12:44.950Z,17.08
2018-09-06T23:15:13.825Z,17.05
2018-09-06T23:17:42.694Z,17.39
2018-09-06T23:20:11.579Z,17.12
2018-09-06T23:22:40.414Z,17.05
2018-09-06T23:25:10.079Z,17.05
2018-09-06T23:27:38.891Z,16.96
2018-09-06T23:30:07.819Z,16.92
2018-09-06T23:32:36.688Z,16.84
2018-09-06T23:35:05.557Z,16.85
2018-09-06T23:37:34.418Z,16.89
2018-09-06T23:40:03.267Z,16.85
2018-09-06T23:42:32.251Z,16.83
2018-09-06T23:45:01.107Z,16.83
2018-09-06T23:47:30.011Z,17.16
2018-09-06T23:49:58.927Z,16.92
2018-09-06T23:52:27.815Z,16.83
2018-09-06T23:54:56.675Z,16.76
2018-09-06T23:57:25.539Z,16.66
2018-09-06T23:59:54.396Z,16.65
